createdAt,value
2022-10-05T00:00:54.253Z,94363.63
2022-10-05T00:04:11.156Z,94361.41
2022-10-05T00:07:19.887Z,94362.00
2022-10-05T00:10:24.894Z,94365.63
2022-10-05T00:13:31.347Z,94359.63
2022-10-05T00:16:36.154Z,94364.19
2022-10-05T00:19:40.336Z,94370.06
2022-10-05T00:22:44.400Z,94376.09
2022-10-05T00:25:48.761Z,94373.84
2022-10-05T00:28:54.682Z,94376.00
2022-10-05T00:31:59.682Z,94380.97
2022-10-05T00:35:03.404Z,94380.44
2022-10-05T00:38:07.214Z,94382.44
2022-10-05T00:41:32.827Z,94379.00
2022-10-05T00:44:52.364Z,94376.97
2022-10-05T00:48:27.090Z,94380.19
2022-10-05T00:51:34.470Z,94376.53
2022-10-05T00:54:48.021Z,94380.66
2022-10-05T00:58:22.097Z,94368.66
2022-10-05T01:01:58.226Z,94375.31
2022-10-05T01:05:22.267Z,94372.38
2022-10-05T01:08:38.520Z,94376.94
2022-10-05T01:11:48.412Z,94378.09
2022-10-05T01:15:13.831Z,94374.56
2022-10-05T01:18:39.188Z,94378.41
2022-10-05T01:22:21.391Z,94377.16
2022-10-05T01:25:52.491Z,94380.50
2022-10-05T01:29:20.768Z,94380.22
2022-10-05T01:33:03.737Z,94379.13
2022-10-05T01:36:35.728Z,94379.69
2022-10-05T01:40:28.738Z,94379.94
2022-10-05T01:43:53.677Z,94376.59
2022-10-05T01:47:18.276Z,94376.59
2022-10-05T01:50:33.510Z,94374.31
2022-10-05T01:54:03.915Z,94373.34
2022-10-05T01:57:26.198Z,94374.78
2022-10-05T02:00:30.569Z,94369.63
2022-10-05T02:03:48.375Z,94375.13
2022-10-05T02:06:53.540Z,94376.06
2022-10-05T02:10:31.622Z,94371.16
2022-10-05T02:13:48.145Z,94367.28
2022-10-05T02:16:53.868Z,94378.69
2022-10-05T02:20:04.831Z,94366.25
2022-10-05T02:23:17.631Z,94373.38
2022-10-05T02:26:21.973Z,94353.63
2022-10-05T02:29:31.583Z,94360.69
2022-10-05T02:32:43.160Z,94356.28
2022-10-05T02:35:46.620Z,94353.16
2022-10-05T02:39:00.720Z,94353.97
2022-10-05T02:42:16.931Z,94341.91
2022-10-05T02:45:32.659Z,94349.28
2022-10-05T02:49:04.217Z,94344.56
2022-10-05T02:52:18.412Z,94339.91
2022-10-05T02:55:46.915Z,94328.41
2022-10-05T02:59:14.929Z,94333.59
2022-10-05T03:02:33.485Z,94332.59
2022-10-05T03:05:47.568Z,94328.75
2022-10-05T03:09:02.483Z,94327.31
2022-10-05T03:12:26.223Z,94319.78
2022-10-05T03:15:42.934Z,94322.16
2022-10-05T03:19:28.981Z,94312.34
2022-10-05T03:22:45.301Z,94317.63
2022-10-05T03:25:54.504Z,94311.59
2022-10-05T03:29:25.392Z,94301.94
2022-10-05T03:32:32.110Z,94300.97
2022-10-05T03:36:04.404Z,94295.16
2022-10-05T03:39:11.775Z,94298.25
2022-10-05T03:42:29.988Z,94294.63
2022-10-05T03:45:39.489Z,94292.00
2022-10-05T03:48:58.352Z,94295.03
2022-10-05T03:52:09.989Z,94281.19
2022-10-05T03:55:34.944Z,94282.66
2022-10-05T03:58:51.951Z,94271.38
2022-10-05T04:01:56.987Z,94272.09
2022-10-05T04:05:06.405Z,94263.59
2022-10-05T04:08:55.952Z,94266.06
2022-10-05T04:12:17.289Z,94255.84
2022-10-05T04:15:30.999Z,94258.63
2022-10-05T04:18:42.473Z,94251.28
2022-10-05T04:22:02.443Z,94258.31
2022-10-05T04:25:24.634Z,94252.91
2022-10-05T04:28:54.359Z,94248.69
2022-10-05T04:32:01.677Z,94248.41
2022-10-05T04:35:26.761Z,94240.72
2022-10-05T04:38:51.822Z,94237.22
2022-10-05T04:42:05.845Z,94219.53
2022-10-05T04:45:46.445Z,94227.53
2022-10-05T04:49:00.188Z,94212.41
2022-10-05T04:52:14.684Z,94219.50
2022-10-05T04:55:57.509Z,94218.47
2022-10-05T04:59:25.841Z,94203.34
2022-10-05T05:03:10.619Z,94211.03
2022-10-05T05:06:35.964Z,94211.03
2022-10-05T05:09:48.854Z,94224.03
2022-10-05T05:13:35.251Z,94212.84
2022-10-05T05:16:42.291Z,94214.84
2022-10-05T05:20:10.963Z,94209.25
2022-10-05T05:23:55.768Z,94204.22
2022-10-05T05:27:11.472Z,94193.47
2022-10-05T05:30:25.696Z,94183.44
2022-10-05T05:33:37.968Z,94184.53
2022-10-05T05:36:56.403Z,94181.81
2022-10-05T05:40:16.548Z,94170.72
2022-10-05T05:43:27.759Z,94163.34
2022-10-05T05:47:02.343Z,94166.25
2022-10-05T05:50:21.499Z,94164.13
2022-10-05T05:53:45.487Z,94156.00
2022-10-05T05:57:11.823Z,94151.56
2022-10-05T06:00:16.116Z,94155.09
2022-10-05T06:03:34.235Z,94146.59
2022-10-05T06:06:43.338Z,94144.09
2022-10-05T06:09:54.408Z,94132.91
2022-10-05T06:13:14.252Z,94133.66
2022-10-05T06:16:33.352Z,94133.66
2022-10-05T06:19:39.368Z,94125.69
2022-10-05T06:22:47.070Z,94126.94
2022-10-05T06:26:12.371Z,94123.22
2022-10-05T06:29:24.254Z,94144.66
2022-10-05T06:32:31.314Z,94141.44
2022-10-05T06:36:07.483Z,94135.09
2022-10-05T06:39:54.630Z,94129.84
2022-10-05T06:43:10.651Z,94123.53
2022-10-05T06:46:42.543Z,94126.16
2022-10-05T06:50:39.125Z,94126.16
2022-10-05T06:54:24.104Z,94121.50
2022-10-05T06:57:45.836Z,94115.81
2022-10-05T07:01:11.540Z,94103.91
2022-10-05T07:04:37.773Z,94115.69
2022-10-05T07:08:04.919Z,94108.94
2022-10-05T07:11:42.042Z,94099.19
2022-10-05T07:15:10.457Z,94098.31
2022-10-05T07:18:23.485Z,94091.63
2022-10-05T07:21:56.022Z,94101.09
2022-10-05T07:25:03.353Z,94100.75
2022-10-05T07:28:23.306Z,94095.22
2022-10-05T07:31:38.874Z,94091.09
2022-10-05T07:35:35.385Z,94097.53
2022-10-05T07:38:46.675Z,94093.16
2022-10-05T07:42:24.265Z,94088.22
2022-10-05T07:45:47.589Z,94090.41
2022-10-05T07:49:03.859Z,94088.47
2022-10-05T07:52:45.700Z,94085.69
2022-10-05T07:55:54.928Z,94087.19
2022-10-05T07:59:08.341Z,94078.47
2022-10-05T08:03:05.411Z,94078.09
2022-10-05T08:06:15.195Z,94092.44
2022-10-05T08:09:48.163Z,94084.59
2022-10-05T08:13:09.182Z,94076.53
2022-10-05T08:16:14.131Z,94090.94
2022-10-05T08:19:27.005Z,94088.41
2022-10-05T08:22:41.602Z,94079.06
2022-10-05T08:25:58.901Z,94081.47
2022-10-05T08:29:06.711Z,94078.06
2022-10-05T08:32:51.268Z,94076.78
2022-10-05T08:36:13.145Z,94080.56
2022-10-05T08:39:20.517Z,94077.59
2022-10-05T08:42:37.895Z,94069.78
2022-10-05T08:46:10.162Z,94063.94
2022-10-05T08:49:22.244Z,94068.06
2022-10-05T08:52:47.748Z,94073.50
2022-10-05T08:56:28.827Z,94068.78
2022-10-05T08:59:56.696Z,94065.94
2022-10-05T09:03:24.101Z,94068.66
2022-10-05T09:06:47.954Z,94067.88
2022-10-05T09:10:14.559Z,94067.34
2022-10-05T09:13:20.524Z,94071.84
2022-10-05T09:16:42.368Z,94068.44
2022-10-05T09:20:24.177Z,94070.75
2022-10-05T09:23:43.871Z,94078.63
2022-10-05T09:27:14.916Z,94066.56
2022-10-05T09:30:29.388Z,94066.31
2022-10-05T09:33:58.884Z,94058.66
2022-10-05T09:37:30.909Z,94057.59
2022-10-05T09:40:42.004Z,94055.50
2022-10-05T09:44:18.050Z,94062.03
2022-10-05T09:47:30.802Z,94055.19
2022-10-05T09:50:54.948Z,94061.16
2022-10-05T09:54:11.298Z,94055.50
2022-10-05T09:57:37.542Z,94051.31
2022-10-05T10:01:16.027Z,94054.44
2022-10-05T10:05:11.164Z,94054.00
2022-10-05T10:08:21.180Z,94047.22
2022-10-05T10:11:44.970Z,94051.53
2022-10-05T10:14:51.493Z,94055.22
2022-10-05T10:18:13.696Z,94053.97
2022-10-05T10:21:26.575Z,94052.59
2022-10-05T10:24:57.147Z,94049.31
2022-10-05T10:28:30.864Z,94062.63
2022-10-05T10:31:59.228Z,94060.16
2022-10-05T10:35:08.551Z,94058.22
2022-10-05T10:38:27.074Z,94060.44
2022-10-05T10:41:37.932Z,94065.56
2022-10-05T10:45:13.836Z,94064.31
2022-10-05T10:48:20.021Z,94064.56
2022-10-05T10:51:31.721Z,94063.63
2022-10-05T10:54:53.801Z,94060.78
2022-10-05T10:58:39.151Z,94067.75
2022-10-05T11:01:54.621Z,94056.31
2022-10-05T11:05:22.064Z,94055.50
2022-10-05T11:09:03.838Z,94057.78
2022-10-05T11:12:10.805Z,94063.88
2022-10-05T11:15:52.870Z,94060.63
2022-10-05T11:19:20.690Z,94060.63
2022-10-05T11:22:36.000Z,94056.59
2022-10-05T11:26:00.496Z,94067.56
2022-10-05T11:29:26.891Z,94058.59
2022-10-05T11:32:54.365Z,94063.00
2022-10-05T11:36:20.732Z,94056.06
2022-10-05T11:39:40.232Z,94064.56
2022-10-05T11:43:12.357Z,94062.41
2022-10-05T11:46:29.703Z,94056.88
2022-10-05T11:49:40.554Z,94050.16
2022-10-05T11:53:02.307Z,94048.91
2022-10-05T11:56:15.519Z,94053.88
2022-10-05T11:59:28.174Z,94048.50
2022-10-05T12:02:56.480Z,94047.06
2022-10-05T12:06:28.964Z,94053.72
2022-10-05T12:10:03.589Z,94041.06
2022-10-05T12:13:21.032Z,94032.19
2022-10-05T12:16:32.987Z,94039.06
2022-10-05T12:20:20.169Z,94036.69
2022-10-05T12:23:47.334Z,94041.75
2022-10-05T12:27:26.288Z,94035.78
2022-10-05T12:30:54.933Z,94034.66
2022-10-05T12:34:43.088Z,94027.97
2022-10-05T12:38:26.876Z,94025.50
2022-10-05T12:41:43.541Z,94026.47
2022-10-05T12:45:10.850Z,94021.66
2022-10-05T12:48:28.454Z,94015.00
2022-10-05T12:51:57.535Z,94014.44
2022-10-05T12:55:10.662Z,94011.25
2022-10-05T12:58:22.542Z,94015.25
2022-10-05T13:01:45.251Z,94008.16
2022-10-05T13:05:03.115Z,94006.97
2022-10-05T13:08:37.554Z,93998.72
2022-10-05T13:11:56.867Z,94000.88
2022-10-05T13:15:08.895Z,94003.63
2022-10-05T13:18:55.178Z,94005.47
2022-10-05T13:22:09.105Z,94004.66
2022-10-05T13:25:31.157Z,94004.53
2022-10-05T13:28:57.081Z,94006.97
2022-10-05T13:32:14.657Z,94000.19
2022-10-05T13:35:44.141Z,93999.38
2022-10-05T13:38:58.930Z,93997.25
2022-10-05T13:42:22.711Z,93993.63
2022-10-05T13:45:46.334Z,93994.88
2022-10-05T13:49:05.973Z,94001.66
2022-10-05T13:52:38.962Z,93985.13
2022-10-05T13:56:02.815Z,93983.94
2022-10-05T13:59:30.483Z,93987.41
2022-10-05T14:02:42.440Z,93989.84
2022-10-05T14:05:58.242Z,93986.78
2022-10-05T14:09:02.553Z,93985.06
2022-10-05T14:12:06.170Z,93979.91
2022-10-05T14:15:42.229Z,93975.22
2022-10-05T14:18:53.297Z,93976.28
2022-10-05T14:22:01.091Z,93975.34
2022-10-05T14:25:08.752Z,93972.59
2022-10-05T14:28:13.706Z,93975.22
2022-10-05T14:31:32.806Z,93963.41
2022-10-05T14:34:57.879Z,93973.16
2022-10-05T14:38:08.714Z,93966.38
2022-10-05T14:41:13.648Z,93981.50
2022-10-05T14:48:02.633Z,93969.00
2022-10-05T14:51:12.244Z,93974.84
2022-10-05T14:54:45.499Z,93969.13
2022-10-05T14:58:15.096Z,93972.91
2022-10-05T15:01:40.210Z,93970.97
2022-10-05T15:04:52.592Z,93974.84
2022-10-05T15:08:02.678Z,93970.97
2022-10-05T15:11:19.173Z,93966.38
2022-10-05T15:14:27.062Z,93963.75
2022-10-05T15:17:44.516Z,93961.78
2022-10-05T15:20:47.800Z,93956.13
